createdAt,value
2017-11-29T00:01:46.920Z,28.98
2017-11-29T00:04:15.411Z,20.80
2017-11-29T00:06:44.599Z,20.48
2017-11-29T00:09:13.341Z,18.95
2017-11-29T00:11:42.158Z,23.08
2017-11-29T00:14:10.893Z,26.52
2017-11-29T00:16:39.658Z,24.40
2017-11-29T00:19:08.407Z,21.02
2017-11-29T00:21:37.182Z,16.95
2017-11-29T00:24:05.951Z,14.10
2017-11-29T00:26:34.740Z,17.55
2017-11-29T00:29:03.520Z,16.37
2017-11-29T00:31:32.294Z,18.80
2017-11-29T00:34:01.828Z,18.62
2017-11-29T00:36:30.612Z,12.98
2017-11-29T00:38:58.712Z,28.20
2017-11-29T00:41:27.150Z,26.90
2017-11-29T00:43:56.336Z,27.55
2017-11-29T00:46:25.911Z,25.12
2017-11-29T00:48:54.677Z,26.12
2017-11-29T00:51:23.449Z,21.90
2017-11-29T00:53:52.205Z,31.83
2017-11-29T00:56:21.007Z,23.55
2017-11-29T00:58:50.353Z,20.02
2017-11-29T01:01:19.715Z,19.62
2017-11-29T01:03:49.112Z,25.77
2017-11-29T01:06:18.643Z,22.80
2017-11-29T01:08:47.415Z,19.00
2017-11-29T01:11:16.951Z,20.70
2017-11-29T01:13:45.732Z,13.80
2017-11-29T01:16:14.483Z,20.77
2017-11-29T01:18:43.236Z,13.60
2017-11-29T01:21:12.041Z,16.08
2017-11-29T01:23:40.999Z,18.10
2017-11-29T01:26:09.774Z,14.23
2017-11-29T01:28:38.515Z,18.62
2017-11-29T01:31:07.352Z,16.27
2017-11-29T01:33:36.075Z,16.17
2017-11-29T01:36:04.501Z,12.02
2017-11-29T01:38:34.055Z,13.60
2017-11-29T01:41:02.634Z,14.13
2017-11-29T01:43:31.197Z,14.87
2017-11-29T01:45:59.768Z,14.13
2017-11-29T01:48:29.286Z,15.23
2017-11-29T01:50:58.256Z,14.32
2017-11-29T01:53:27.807Z,13.10
2017-11-29T01:55:56.538Z,18.85
2017-11-29T01:58:25.318Z,18.08
2017-11-29T02:00:54.265Z,17.42
2017-11-29T02:03:23.079Z,22.75
2017-11-29T02:05:51.199Z,16.27
2017-11-29T02:08:19.956Z,19.85
2017-11-29T02:10:48.679Z,21.20
2017-11-29T02:13:17.447Z,21.70
2017-11-29T02:15:46.527Z,21.67
2017-11-29T02:18:15.275Z,21.90
2017-11-29T02:20:43.319Z,23.08
2017-11-29T02:23:11.822Z,19.30
2017-11-29T02:25:40.658Z,13.13
2017-11-29T02:28:08.767Z,16.35
2017-11-29T02:30:36.879Z,22.25
2017-11-29T02:33:04.941Z,23.23
2017-11-29T02:35:33.052Z,21.37
2017-11-29T02:38:01.496Z,15.25
2017-11-29T02:40:52.315Z,14.27
2017-11-29T02:43:20.222Z,12.77
2017-11-29T02:45:48.318Z,13.68
2017-11-29T02:48:17.171Z,16.25
2017-11-29T02:50:45.103Z,12.75
2017-11-29T02:53:13.229Z,17.52
2017-11-29T02:55:41.545Z,12.90
2017-11-29T02:58:09.696Z,12.05
2017-11-29T03:00:37.817Z,14.02
2017-11-29T03:03:07.351Z,14.07
2017-11-29T03:05:36.099Z,15.35
2017-11-29T03:08:04.856Z,14.60
2017-11-29T03:10:34.159Z,15.23
2017-11-29T03:13:03.707Z,13.05
2017-11-29T03:15:32.487Z,11.45
2017-11-29T03:18:01.304Z,11.10
2017-11-29T03:20:30.063Z,12.20
2017-11-29T03:22:58.828Z,9.25
2017-11-29T03:25:27.634Z,11.60
2017-11-29T03:27:57.148Z,11.73
2017-11-29T03:30:25.876Z,10.50
2017-11-29T03:32:54.671Z,15.43
2017-11-29T03:35:23.442Z,15.65
2017-11-29T03:37:52.236Z,10.40
2017-11-29T03:40:20.997Z,11.10
2017-11-29T03:42:49.708Z,10.70
2017-11-29T03:45:18.416Z,8.25
2017-11-29T03:47:47.368Z,10.98
2017-11-29T03:50:17.034Z,10.80
2017-11-29T03:52:45.779Z,8.52
2017-11-29T03:55:14.568Z,17.70
2017-11-29T03:57:43.351Z,11.20
2017-11-29T04:00:12.122Z,7.78
2017-11-29T04:02:40.895Z,10.85
2017-11-29T04:05:10.444Z,8.68
2017-11-29T04:07:39.356Z,17.45
2017-11-29T04:10:07.819Z,7.62
2017-11-29T04:12:36.307Z,13.27
2017-11-29T04:15:04.357Z,14.20
2017-11-29T04:17:32.740Z,10.68
2017-11-29T04:20:01.468Z,9.20
2017-11-29T04:22:29.944Z,9.95
2017-11-29T04:24:58.679Z,14.45
2017-11-29T04:27:27.104Z,9.40
2017-11-29T04:29:55.902Z,17.90
2017-11-29T04:32:24.642Z,8.90
2017-11-29T04:34:54.195Z,11.38
2017-11-29T04:37:22.807Z,8.20
2017-11-29T04:39:51.369Z,9.88
2017-11-29T04:42:20.133Z,7.20
2017-11-29T04:44:48.893Z,9.70
2017-11-29T04:47:18.429Z,11.35
2017-11-29T04:49:46.476Z,10.48
2017-11-29T04:52:14.587Z,11.85
2017-11-29T04:54:43.487Z,10.05
2017-11-29T04:57:12.259Z,10.07
2017-11-29T04:59:41.029Z,9.73
2017-11-29T05:02:09.177Z,9.50
2017-11-29T05:04:38.326Z,8.60
2017-11-29T05:07:06.793Z,9.90
2017-11-29T05:09:35.560Z,7.82
2017-11-29T05:12:03.628Z,8.85
2017-11-29T05:14:32.505Z,10.15
2017-11-29T05:17:01.400Z,12.52
2017-11-29T05:19:29.775Z,6.70
2017-11-29T05:21:58.261Z,11.65
2017-11-29T05:24:27.457Z,10.45
2017-11-29T05:26:55.692Z,10.32
2017-11-29T05:29:23.771Z,7.30
2017-11-29T05:31:52.234Z,11.10
2017-11-29T05:34:20.374Z,10.00
2017-11-29T05:36:49.049Z,10.70
2017-11-29T05:39:18.271Z,17.77
2017-11-29T05:41:46.693Z,11.12
2017-11-29T05:44:14.835Z,7.90
2017-11-29T05:46:42.999Z,8.90
2017-11-29T05:49:11.733Z,9.30
2017-11-29T05:51:39.835Z,10.50
2017-11-29T05:54:08.900Z,8.77
2017-11-29T05:56:36.992Z,12.85
2017-11-29T05:59:05.071Z,9.80
2017-11-29T06:05:05.347Z,9.20
2017-11-29T15:08:36.459Z,17.12
2017-11-29T15:11:25.804Z,16.95
2017-11-29T15:16:49.465Z,18.87
2017-11-29T15:28:16.228Z,18.35
2017-11-29T15:39:38.546Z,22.67
2017-11-29T15:42:08.266Z,27.65
2017-11-29T15:44:47.865Z,20.60
2017-11-29T16:01:48.930Z,26.73
2017-11-29T16:04:20.860Z,23.95
2017-11-29T16:06:53.025Z,27.95
2017-11-29T16:09:22.014Z,24.27
2017-11-29T16:11:55.382Z,23.92
2017-11-29T16:14:38.542Z,27.17
2017-11-29T16:17:07.383Z,27.27
2017-11-29T16:22:32.072Z,17.12
2017-11-29T16:28:18.818Z,17.52
2017-11-29T16:31:19.484Z,18.62
2017-11-29T16:33:48.200Z,20.52
2017-11-29T16:36:16.671Z,29.48
2017-11-29T16:38:46.251Z,24.73
2017-11-29T16:41:15.293Z,22.20
2017-11-29T16:43:43.946Z,23.23
2017-11-29T16:46:13.639Z,19.98
2017-11-29T16:48:42.507Z,21.75
2017-11-29T16:51:11.247Z,22.65
2017-11-29T16:53:40.790Z,23.95
2017-11-29T16:56:09.578Z,18.48
2017-11-29T17:12:44.960Z,19.02
2017-11-29T17:53:16.981Z,16.55
2017-11-29T17:55:48.907Z,17.55
2017-11-29T17:58:26.232Z,18.98
2017-11-29T18:00:54.892Z,19.05
2017-11-29T18:03:24.516Z,18.95
2017-11-29T18:06:05.671Z,24.98
2017-11-29T18:15:24.764Z,15.75
2017-11-29T18:26:48.469Z,19.87
2017-11-29T18:29:19.124Z,20.58
2017-11-29T18:31:49.531Z,25.75
2017-11-29T18:39:40.183Z,12.73
2017-11-29T18:42:09.325Z,12.10
2017-11-29T18:44:41.951Z,11.60
2017-11-29T18:47:24.350Z,16.95
2017-11-29T18:49:54.149Z,18.50
2017-11-29T18:52:23.116Z,14.73
2017-11-29T18:54:52.131Z,16.58
2017-11-29T18:57:20.994Z,13.05
2017-11-29T18:59:49.926Z,14.43
2017-11-29T19:02:19.036Z,15.10
2017-11-29T19:04:47.984Z,12.73
2017-11-29T19:07:16.523Z,12.15
2017-11-29T19:09:45.139Z,12.40
2017-11-29T19:12:15.631Z,13.32
2017-11-29T19:14:44.471Z,13.23
2017-11-29T19:17:13.003Z,15.10
2017-11-29T19:19:42.591Z,12.43
2017-11-29T19:22:11.153Z,11.07
2017-11-29T19:24:39.949Z,12.77
2017-11-29T19:27:08.725Z,11.38
2017-11-29T19:29:37.611Z,10.90
2017-11-29T19:32:05.901Z,14.18
2017-11-29T19:34:34.655Z,9.43
2017-11-29T19:37:03.472Z,11.35
2017-11-29T19:39:32.284Z,8.57
2017-11-29T19:42:01.096Z,10.88
2017-11-29T19:44:29.928Z,13.38
2017-11-29T19:46:58.759Z,13.43
2017-11-29T19:49:27.518Z,10.45
2017-11-29T19:51:56.287Z,10.77
2017-11-29T19:54:25.179Z,11.95
2017-11-29T19:56:54.012Z,12.57
2017-11-29T19:59:23.036Z,11.93
2017-11-29T20:01:51.807Z,14.85
2017-11-29T20:04:20.662Z,16.70
2017-11-29T20:06:49.318Z,12.07
